Time;durP1;ratioP1;P1;durP2;ratioP2;P2;SDS_P1;SDS_P2;PMS_P1;PMS_P2;Temp;Humidity;BMP_temperature;BMP_pressure;BME280_temperature;BME280_humidity;BME280_pressure;Samples;Min_cycle;Max_cycle;Signal;HPM_P1;HPM_P2
2023/09/08 00:02:07;;;;;;;4.10;3.70;;;24.90;62.50;;;;;;5090298;28;20819;-67
2023/09/08 00:04:54;;;;;;;3.93;3.53;;;24.90;62.50;;;;;;5087751;28;20552;-68
2023/09/08 00:07:42;;;;;;;4.60;4.00;;;24.90;62.50;;;;;;5089446;28;20451;-68
2023/09/08 00:10:30;;;;;;;3.73;3.43;;;24.90;62.60;;;;;;5104037;28;20436;-68
2023/09/08 00:13:16;;;;;;;3.77;3.30;;;24.90;62.50;;;;;;5085167;28;20478;-67
2023/09/08 00:16:04;;;;;;;4.27;3.97;;;24.90;62.60;;;;;;5104090;28;20952;-67
2023/09/08 00:18:52;;;;;;;4.43;3.67;;;24.90;62.60;;;;;;5083541;28;21079;-67
2023/09/08 00:21:39;;;;;;;3.47;3.20;;;24.90;62.50;;;;;;5090407;28;21018;-67
2023/09/08 00:24:26;;;;;;;4.70;4.30;;;24.90;62.60;;;;;;5089328;28;20839;-68
2023/09/08 00:27:13;;;;;;;4.23;3.93;;;24.90;62.50;;;;;;5088295;28;21149;-67
2023/09/08 00:30:01;;;;;;;5.07;3.97;;;24.90;62.30;;;;;;5089716;28;20970;-68
2023/09/08 00:32:48;;;;;;;4.70;4.10;;;24.90;62.40;;;;;;5082191;28;20541;-68
2023/09/08 00:35:37;;;;;;;5.00;4.20;;;24.90;62.30;;;;;;5091567;28;20487;-68
2023/09/08 00:38:25;;;;;;;3.70;3.40;;;24.90;62.30;;;;;;5100254;28;20461;-68
2023/09/08 00:41:13;;;;;;;3.67;3.37;;;24.90;62.40;;;;;;5092826;28;20427;-69
2023/09/08 00:44:00;;;;;;;3.67;3.37;;;24.90;62.30;;;;;;5086343;28;20467;-69
2023/09/08 00:46:47;;;;;;;3.40;3.10;;;24.80;62.30;;;;;;5093320;28;20440;-68
2023/09/08 00:49:34;;;;;;;4.20;3.80;;;24.90;62.40;;;;;;5090316;28;20847;-68
2023/09/08 00:52:22;;;;;;;4.10;3.70;;;24.90;62.40;;;;;;5089081;28;20432;-68
2023/09/08 00:55:10;;;;;;;4.00;3.70;;;24.90;62.40;;;;;;5106446;28;20509;-69
2023/09/08 00:57:58;;;;;;;4.00;3.70;;;24.90;63.80;;;;;;5046814;27;1159712;-68
2023/09/08 01:00:45;;;;;;;3.83;3.53;;;24.90;62.50;;;;;;5093254;28;20747;-68
2023/09/08 01:03:32;;;;;;;4.47;4.17;;;24.90;62.30;;;;;;5089923;28;20466;-68
2023/09/08 01:06:20;;;;;;;3.30;3.10;;;24.80;62.20;;;;;;5092900;28;20448;-68
2023/09/08 01:09:09;;;;;;;4.23;3.83;;;24.80;62.20;;;;;;5092881;28;20483;-67
2023/09/08 01:12:00;;;;;;;7.13;3.87;;;24.80;62.30;;;;;;5083799;28;20447;-67
2023/09/08 01:14:48;;;;;;;4.03;3.73;;;24.80;62.30;;;;;;5092875;28;20533;-68
2023/09/08 01:17:36;;;;;;;3.63;3.40;;;24.80;62.30;;;;;;5093487;28;20792;-68
2023/09/08 01:20:28;;;;;;;3.90;3.60;;;24.80;62.30;;;;;;5093597;28;20443;-68
2023/09/08 01:23:22;;;;;;;3.93;3.63;;;24.80;62.50;;;;;;5105908;28;20463;-68
2023/09/08 01:26:11;;;;;;;4.37;3.97;;;24.80;62.10;;;;;;5087264;28;20439;-68
2023/09/08 01:29:01;;;;;;;4.37;3.60;;;24.80;62.20;;;;;;5085788;28;20479;-68
2023/09/08 01:31:48;;;;;;;4.10;3.80;;;24.80;62.20;;;;;;5108607;28;20451;-68
2023/09/08 01:34:36;;;;;;;3.60;3.30;;;24.80;62.20;;;;;;5104020;27;20552;-67
2023/09/08 01:37:24;;;;;;;3.97;3.67;;;24.80;62.30;;;;;;5103485;28;20459;-68
2023/09/08 01:40:12;;;;;;;4.33;4.03;;;24.80;62.20;;;;;;5107698;28;20532;-67
2023/09/08 01:43:01;;;;;;;4.20;3.80;;;24.80;62.20;;;;;;5082430;28;20459;-68
2023/09/08 01:45:48;;;;;;;4.00;3.70;;;24.80;62.30;;;;;;5091116;28;20440;-67
2023/09/08 01:48:35;;;;;;;4.13;3.83;;;24.80;62.30;;;;;;5085957;28;20637;-68
2023/09/08 01:51:23;;;;;;;4.10;3.80;;;24.80;62.30;;;;;;5122042;27;20504;-68
2023/09/08 01:54:10;;;;;;;4.37;3.97;;;24.80;62.30;;;;;;5083721;28;20460;-68
2023/09/08 01:56:57;;;;;;;4.47;4.17;;;24.80;62.20;;;;;;5093283;28;20982;-68
2023/09/08 01:59:45;;;;;;;3.80;3.20;;;24.80;62.30;;;;;;5085117;28;20590;-68
2023/09/08 02:02:33;;;;;;;3.90;3.60;;;24.80;62.20;;;;;;5095629;28;20593;-68
2023/09/08 02:05:20;;;;;;;4.73;4.33;;;24.80;62.30;;;;;;5094623;28;20451;-68
2023/09/08 02:08:08;;;;;;;4.07;3.70;;;24.70;62.10;;;;;;5105298;28;20447;-67
2023/09/08 02:10:55;;;;;;;3.80;3.50;;;24.80;62.30;;;;;;5098603;28;20641;-67
2023/09/08 02:13:43;;;;;;;3.77;3.47;;;24.70;62.10;;;;;;5094010;28;20459;-67
2023/09/08 02:16:31;;;;;;;4.03;3.73;;;24.70;62.10;;;;;;5095507;28;20436;-73
2023/09/08 02:19:19;;;;;;;4.17;3.87;;;24.70;62.30;;;;;;5088547;28;20513;-73
2023/09/08 02:22:06;;;;;;;4.20;3.90;;;24.70;62.20;;;;;;5096300;28;20424;-73
2023/09/08 02:24:53;;;;;;;3.97;3.67;;;24.70;62.30;;;;;;5095596;28;20452;-73
2023/09/08 02:27:40;;;;;;;4.73;3.77;;;24.70;62.20;;;;;;5095752;28;20423;-73
2023/09/08 02:30:27;;;;;;;4.10;3.80;;;24.70;62.20;;;;;;5092367;28;20889;-73
2023/09/08 02:33:16;;;;;;;4.60;4.20;;;24.70;62.30;;;;;;5095249;28;20423;-74
2023/09/08 02:36:06;;;;;;;3.27;3.07;;;24.70;62.50;;;;;;5117238;27;20455;-73
2023/09/08 02:38:55;;;;;;;4.10;3.80;;;24.70;62.40;;;;;;5104277;27;20469;-73
2023/09/08 02:41:42;;;;;;;3.77;3.47;;;24.70;62.50;;;;;;5097150;28;20438;-73
2023/09/08 02:44:30;;;;;;;3.93;3.63;;;24.70;62.30;;;;;;5088229;28;20725;-73
2023/09/08 02:47:18;;;;;;;3.90;3.60;;;24.70;62.30;;;;;;5090626;28;20530;-73
2023/09/08 02:50:08;;;;;;;4.10;3.80;;;24.70;62.30;;;;;;5091378;28;20965;-73
2023/09/08 02:52:55;;;;;;;3.97;3.67;;;24.70;62.40;;;;;;5094394;28;20943;-73
2023/09/08 02:55:41;;;;;;;4.17;3.87;;;24.70;62.30;;;;;;5094995;28;20882;-73
2023/09/08 02:58:28;;;;;;;3.80;3.50;;;24.70;62.30;;;;;;5081224;28;20558;-73
2023/09/08 03:01:20;;;;;;;4.07;3.77;;;24.60;62.30;;;;;;5089910;28;20922;-73
2023/09/08 03:04:08;;;;;;;3.80;3.50;;;24.70;62.20;;;;;;5086448;28;20553;-73
2023/09/08 03:06:56;;;;;;;3.37;3.07;;;24.60;62.30;;;;;;5084264;28;20439;-73
2023/09/08 03:09:43;;;;;;;4.00;3.70;;;24.60;62.10;;;;;;5085100;28;20998;-73
2023/09/08 03:12:31;;;;;;;4.00;3.70;;;24.60;62.10;;;;;;5089542;28;20460;-73
2023/09/08 03:15:21;;;;;;;3.60;3.33;;;24.60;62.10;;;;;;5101808;28;20529;-73
2023/09/08 03:18:07;;;;;;;4.20;3.90;;;24.60;62.10;;;;;;5091543;28;20468;-73
2023/09/08 03:20:54;;;;;;;3.80;3.50;;;24.60;63.30;;;;;;5083915;28;20442;-73
2023/09/08 03:23:44;;;;;;;3.60;3.30;;;24.60;62.00;;;;;;5093670;27;21022;-73
2023/09/08 03:26:31;;;;;;;3.93;3.63;;;24.50;62.00;;;;;;5088936;28;20514;-73
2023/09/08 03:29:19;;;;;;;3.90;3.60;;;24.50;62.00;;;;;;5085555;28;20471;-73
2023/09/08 03:32:07;;;;;;;4.40;4.00;;;24.50;62.00;;;;;;5091575;28;20493;-73
2023/09/08 03:34:54;;;;;;;4.03;3.63;;;24.50;62.00;;;;;;5082409;28;20487;-73
2023/09/08 03:37:41;;;;;;;4.10;3.80;;;24.50;62.00;;;;;;5088923;28;20456;-73
2023/09/08 03:40:30;;;;;;;4.27;3.90;;;24.50;61.90;;;;;;5119951;27;20490;-73
2023/09/08 03:43:17;;;;;;;4.07;3.67;;;24.50;61.80;;;;;;5088581;28;20517;-73
2023/09/08 03:46:04;;;;;;;3.90;3.60;;;24.50;61.40;;;;;;5091026;28;20424;-73
2023/09/08 03:48:51;;;;;;;4.10;3.80;;;24.40;61.70;;;;;;5086816;28;20479;-73
2023/09/08 03:51:38;;;;;;;3.90;3.60;;;24.40;61.80;;;;;;5119204;27;20529;-73
2023/09/08 03:54:25;;;;;;;3.97;3.67;;;24.40;61.80;;;;;;5089298;28;20456;-73
2023/09/08 03:57:13;;;;;;;3.97;3.70;;;24.40;61.90;;;;;;5098675;28;20460;-73
2023/09/08 04:00:00;;;;;;;4.70;4.30;;;24.40;62.00;;;;;;5085620;28;20479;-73
2023/09/08 04:02:48;;;;;;;4.17;3.87;;;24.40;62.10;;;;;;5088625;28;20447;-73
2023/09/08 04:05:35;;;;;;;4.20;3.83;;;24.40;62.10;;;;;;5103887;28;20971;-74
2023/09/08 04:08:22;;;;;;;4.27;3.90;;;24.50;61.90;;;;;;5090874;28;21085;-73
2023/09/08 04:11:09;;;;;;;4.30;3.63;;;24.40;61.70;;;;;;5099895;28;20428;-73
2023/09/08 04:13:58;;;;;;;4.17;3.87;;;24.40;61.70;;;;;;5090166;28;20572;-73
2023/09/08 04:16:45;;;;;;;3.70;3.50;;;24.40;61.80;;;;;;5104899;28;21396;-73
2023/09/08 04:19:32;;;;;;;4.30;4.00;;;24.40;61.90;;;;;;5088417;28;20479;-73
2023/09/08 04:22:19;;;;;;;5.63;4.20;;;24.40;62.10;;;;;;5091039;28;20506;-73
2023/09/08 04:25:06;;;;;;;4.43;4.10;;;24.40;62.10;;;;;;5096953;28;20470;-73
2023/09/08 04:27:53;;;;;;;4.17;3.83;;;24.40;61.90;;;;;;5079763;28;20451;-73
2023/09/08 04:30:42;;;;;;;3.97;3.67;;;24.40;61.90;;;;;;5117800;28;20488;-73
2023/09/08 04:33:30;;;;;;;4.00;3.70;;;24.40;61.80;;;;;;5103397;28;20468;-73
2023/09/08 04:36:18;;;;;;;4.20;3.80;;;24.40;62.00;;;;;;5090549;28;20439;-73
2023/09/08 04:39:05;;;;;;;4.10;3.80;;;24.40;61.90;;;;;;5083424;28;20541;-73
2023/09/08 04:41:52;;;;;;;4.47;4.07;;;24.40;61.90;;;;;;5103320;28;20807;-73
2023/09/08 04:44:39;;;;;;;4.07;3.77;;;24.40;61.80;;;;;;5100505;28;21052;-73
2023/09/08 04:47:29;;;;;;;3.60;3.30;;;24.40;61.70;;;;;;5087583;28;20555;-68
2023/09/08 04:50:16;;;;;;;4.50;4.10;;;24.40;61.90;;;;;;5088389;28;20493;-68
2023/09/08 04:53:04;;;;;;;4.23;3.87;;;24.30;61.60;;;;;;5089063;28;20852;-67
2023/09/08 04:55:52;;;;;;;4.60;4.20;;;24.30;61.70;;;;;;5086984;28;20436;-68
2023/09/08 04:58:39;;;;;;;4.20;3.90;;;24.30;61.80;;;;;;5082896;28;20569;-68
2023/09/08 05:01:26;;;;;;;4.30;3.80;;;24.30;62.00;;;;;;5090692;28;20598;-67
2023/09/08 05:04:15;;;;;;;4.20;3.80;;;24.30;61.90;;;;;;5081723;28;20472;-67
2023/09/08 05:07:02;;;;;;;4.60;4.20;;;24.30;62.00;;;;;;5083015;28;20582;-67
2023/09/08 05:09:49;;;;;;;4.40;4.00;;;24.30;61.90;;;;;;5086981;28;20483;-67
2023/09/08 05:12:37;;;;;;;4.73;4.30;;;24.30;61.70;;;;;;5089979;28;20451;-68
2023/09/08 05:15:25;;;;;;;4.83;4.30;;;24.30;61.90;;;;;;5085853;28;20484;-67
2023/09/08 05:18:13;;;;;;;4.70;4.30;;;24.30;62.20;;;;;;5090137;28;20471;-68
2023/09/08 05:21:01;;;;;;;3.73;3.50;;;24.30;62.00;;;;;;5091108;28;20777;-67
2023/09/08 05:23:49;;;;;;;4.70;3.83;;;24.30;61.90;;;;;;5099361;28;20467;-66
2023/09/08 05:26:39;;;;;;;4.47;4.07;;;24.30;61.90;;;;;;5090148;28;20435;-67
2023/09/08 05:29:26;;;;;;;4.23;3.93;;;24.30;62.10;;;;;;5089022;28;20487;-67
2023/09/08 05:32:13;;;;;;;3.83;3.53;;;24.30;62.10;;;;;;5087869;28;20443;-67
2023/09/08 05:35:00;;;;;;;4.37;3.97;;;24.30;62.00;;;;;;5094526;28;20914;-73
2023/09/08 05:37:49;;;;;;;4.50;4.10;;;24.30;62.10;;;;;;5093974;28;20447;-73
2023/09/08 05:40:36;;;;;;;4.30;3.90;;;24.30;62.10;;;;;;5093730;28;20451;-73
2023/09/08 05:43:25;;;;;;;4.23;3.90;;;24.30;62.00;;;;;;5106128;28;20516;-73
2023/09/08 05:46:14;;;;;;;4.17;3.77;;;24.30;62.10;;;;;;5116478;27;20467;-73
2023/09/08 05:49:01;;;;;;;4.70;4.30;;;24.30;62.00;;;;;;5091122;28;20529;-73
2023/09/08 05:51:49;;;;;;;4.67;4.27;;;24.30;62.10;;;;;;5122017;27;20446;-73
2023/09/08 05:54:38;;;;;;;5.30;4.00;;;24.30;62.00;;;;;;5091833;28;20475;-73
2023/09/08 05:57:26;;;;;;;4.30;3.90;;;24.20;62.10;;;;;;5093662;28;20526;-73
2023/09/08 06:00:14;;;;;;;5.00;4.60;;;24.20;62.00;;;;;;5093058;28;20489;-73
2023/09/08 06:03:06;;;;;;;4.70;4.27;;;24.20;62.00;;;;;;5086457;28;20427;-73
2023/09/08 06:05:53;;;;;;;3.77;3.40;;;24.20;62.10;;;;;;5091872;28;20464;-73
2023/09/08 06:08:41;;;;;;;4.03;3.73;;;24.20;62.00;;;;;;5092873;28;20934;-73
2023/09/08 06:11:29;;;;;;;4.23;3.83;;;24.20;62.10;;;;;;5094405;28;20975;-73
2023/09/08 06:14:17;;;;;;;4.03;3.73;;;24.20;62.10;;;;;;5093243;28;20468;-73
2023/09/08 06:17:06;;;;;;;4.00;3.70;;;24.20;62.20;;;;;;5104789;28;20427;-73
2023/09/08 06:19:53;;;;;;;3.90;3.50;;;24.20;62.10;;;;;;5088677;28;20509;-73
2023/09/08 06:22:40;;;;;;;4.30;3.90;;;24.20;62.20;;;;;;5092141;28;20451;-73
2023/09/08 06:25:29;;;;;;;4.27;3.93;;;24.20;62.20;;;;;;5092068;28;20463;-73
2023/09/08 06:28:17;;;;;;;4.33;3.60;;;24.20;62.40;;;;;;5089293;28;20475;-72
2023/09/08 06:31:05;;;;;;;3.77;3.47;;;24.10;62.30;;;;;;5099320;28;20428;-73
2023/09/08 06:33:52;;;;;;;4.37;3.97;;;24.10;62.10;;;;;;5117451;27;20479;-73
2023/09/08 06:36:41;;;;;;;4.00;3.70;;;24.10;62.30;;;;;;5092259;28;20525;-73
2023/09/08 06:39:29;;;;;;;4.50;4.10;;;24.10;62.40;;;;;;5084633;28;20474;-73
2023/09/08 06:42:16;;;;;;;6.13;4.07;;;24.10;62.30;;;;;;5089411;28;20968;-73
2023/09/08 06:45:14;;;;;;;3.80;3.50;;;24.10;62.50;;;;;;5086001;28;20597;-73
2023/09/08 06:48:01;;;;;;;4.10;3.60;;;24.10;62.60;;;;;;5081248;28;20455;-73
2023/09/08 06:50:49;;;;;;;4.07;3.67;;;24.10;62.60;;;;;;5091807;28;20966;-73
2023/09/08 06:53:37;;;;;;;4.10;3.80;;;24.10;62.60;;;;;;5086939;28;20549;-73
2023/09/08 06:56:24;;;;;;;3.80;3.50;;;24.10;62.80;;;;;;5091705;28;20443;-72
2023/09/08 06:59:12;;;;;;;3.90;3.47;;;24.10;62.90;;;;;;5086139;28;20461;-73
2023/09/08 07:02:00;;;;;;;4.20;3.60;;;24.10;63.00;;;;;;5097776;28;20436;-73
2023/09/08 07:04:48;;;;;;;3.63;3.33;;;24.10;63.00;;;;;;5088722;28;20470;-73
2023/09/08 07:07:35;;;;;;;3.80;3.50;;;24.10;62.90;;;;;;5083643;28;20440;-73
2023/09/08 07:10:23;;;;;;;3.97;3.47;;;24.10;63.00;;;;;;5087790;28;20415;-73
2023/09/08 07:13:11;;;;;;;4.27;3.97;;;24.10;63.00;;;;;;5086588;28;20447;-73
2023/09/08 07:15:58;;;;;;;4.30;3.90;;;24.10;63.10;;;;;;5086467;28;20768;-73
2023/09/08 07:18:48;;;;;;;3.70;3.40;;;24.10;63.10;;;;;;5073304;28;20495;-73
2023/09/08 07:21:35;;;;;;;4.50;4.10;;;24.10;63.10;;;;;;5106779;28;20444;-71
2023/09/08 07:24:23;;;;;;;4.17;3.87;;;24.10;63.10;;;;;;5088572;28;20906;-73
2023/09/08 07:27:13;;;;;;;3.63;3.33;;;24.10;63.20;;;;;;5082421;28;20455;-73
2023/09/08 07:30:01;;;;;;;3.23;2.97;;;24.10;63.20;;;;;;5090321;28;20520;-73
2023/09/08 07:32:49;;;;;;;3.50;3.23;;;24.10;63.30;;;;;;5091943;28;20440;-73
2023/09/08 07:35:39;;;;;;;3.57;3.07;;;24.10;63.20;;;;;;5088344;28;20814;-73
2023/09/08 07:38:27;;;;;;;3.83;3.53;;;24.10;63.30;;;;;;5086116;28;21059;-72
2023/09/08 07:41:14;;;;;;;3.70;3.40;;;24.10;63.40;;;;;;5088942;28;20447;-73
2023/09/08 07:44:02;;;;;;;3.70;3.40;;;24.10;63.40;;;;;;5082965;28;20459;-73
2023/09/08 07:46:51;;;;;;;3.63;3.33;;;24.10;63.40;;;;;;5090082;28;20468;-73
2023/09/08 07:49:38;;;;;;;4.23;3.83;;;24.10;63.30;;;;;;5090226;28;20898;-73
2023/09/08 07:52:27;;;;;;;3.60;3.30;;;24.20;63.50;;;;;;5091731;28;20427;-73
2023/09/08 07:55:14;;;;;;;3.93;3.63;;;24.20;63.50;;;;;;5087690;28;20447;-73
2023/09/08 07:58:03;;;;;;;3.83;3.40;;;24.10;63.40;;;;;;5085730;28;20463;-73
2023/09/08 08:00:51;;;;;;;4.17;3.77;;;24.10;63.40;;;;;;5089047;28;21009;-73
2023/09/08 08:03:38;;;;;;;4.00;3.70;;;24.10;63.40;;;;;;5087789;28;20551;-73
2023/09/08 08:06:26;;;;;;;3.53;3.23;;;24.20;63.50;;;;;;5090024;28;20455;-73
2023/09/08 08:09:14;;;;;;;3.90;3.60;;;24.20;63.50;;;;;;5082759;28;20605;-73
2023/09/08 08:12:01;;;;;;;3.90;3.60;;;24.10;63.50;;;;;;5089012;28;20436;-73
2023/09/08 08:14:48;;;;;;;3.20;3.00;;;24.20;63.60;;;;;;5089999;28;20467;-73
2023/09/08 08:17:35;;;;;;;3.77;3.47;;;24.20;63.70;;;;;;5089317;28;20444;-73
2023/09/08 08:20:23;;;;;;;3.67;3.40;;;24.20;63.70;;;;;;5087817;28;20706;-73
2023/09/08 08:23:11;;;;;;;4.00;3.70;;;24.20;63.80;;;;;;5090305;28;20802;-73
2023/09/08 08:26:00;;;;;;;5.50;3.90;;;24.20;63.80;;;;;;5087939;28;20463;-73
2023/09/08 08:28:47;;;;;;;3.97;3.67;;;24.20;63.90;;;;;;5102296;28;20842;-73
2023/09/08 08:31:34;;;;;;;3.50;3.20;;;24.20;63.90;;;;;;5090150;28;20898;-73
2023/09/08 08:34:22;;;;;;;4.37;3.97;;;24.10;63.80;;;;;;5086843;28;21018;-73
2023/09/08 08:37:10;;;;;;;3.40;3.10;;;24.20;64.00;;;;;;5116194;28;20506;-73
2023/09/08 08:40:00;;;;;;;3.30;3.10;;;24.20;64.00;;;;;;5095863;28;20589;-73
2023/09/08 08:42:49;;;;;;;4.40;4.00;;;24.20;63.90;;;;;;5089439;28;20455;-73
2023/09/08 08:45:37;;;;;;;4.10;3.80;;;24.20;64.00;;;;;;5090260;28;21057;-73
2023/09/08 08:48:26;;;;;;;3.67;3.30;;;24.20;64.00;;;;;;5088279;28;20459;-73
2023/09/08 08:51:14;;;;;;;4.50;3.30;;;24.20;64.00;;;;;;5090751;28;21022;-73
2023/09/08 08:54:04;;;;;;;4.40;3.90;;;24.20;64.10;;;;;;5088781;28;21067;-73
2023/09/08 08:56:50;;;;;;;3.50;3.30;;;24.20;64.20;;;;;;5091288;28;20587;-73
2023/09/08 08:59:41;;;;;;;3.73;3.43;;;24.20;64.20;;;;;;5094103;28;20684;-73
2023/09/08 09:02:30;;;;;;;3.77;3.47;;;24.20;64.20;;;;;;5090345;28;20428;-73
2023/09/08 09:05:17;;;;;;;3.93;3.63;;;24.10;64.10;;;;;;5091372;28;20471;-73
2023/09/08 09:08:05;;;;;;;3.90;3.60;;;24.20;64.20;;;;;;5094420;28;20438;-73
2023/09/08 09:10:52;;;;;;;3.07;2.87;;;24.20;64.30;;;;;;5092038;28;21038;-73
2023/09/08 09:13:39;;;;;;;4.40;4.00;;;24.20;64.30;;;;;;5090720;28;20467;-73
2023/09/08 09:16:27;;;;;;;3.90;3.60;;;24.20;64.20;;;;;;5086153;28;20428;-73
2023/09/08 09:19:25;;;;;;;3.43;3.17;;;24.20;64.30;;;;;;5089201;28;20617;-73
2023/09/08 09:22:14;;;;;;;3.63;3.33;;;24.20;64.40;;;;;;5103025;28;20439;-73
2023/09/08 09:25:00;;;;;;;3.63;3.33;;;24.10;64.20;;;;;;5086168;28;20501;-73
2023/09/08 09:27:51;;;;;;;3.30;3.10;;;24.20;64.40;;;;;;5087364;28;20565;-73
2023/09/08 09:30:49;;;;;;;3.80;3.50;;;24.20;64.30;;;;;;5091359;28;20962;-73
2023/09/08 09:33:37;;;;;;;3.60;3.30;;;24.20;64.40;;;;;;5091931;28;20507;-73
2023/09/08 09:36:23;;;;;;;3.80;3.50;;;24.20;64.30;;;;;;5096870;27;20450;-73
2023/09/08 09:39:10;;;;;;;2.83;2.63;;;24.10;64.30;;;;;;5086081;28;21343;-73
2023/09/08 09:41:58;;;;;;;3.50;3.13;;;24.20;64.40;;;;;;5092331;28;20532;-73
2023/09/08 09:44:44;;;;;;;3.27;2.97;;;24.20;64.40;;;;;;5091366;28;20478;-73
2023/09/08 09:47:32;;;;;;;3.20;3.00;;;24.20;64.40;;;;;;5093774;28;20470;-73
2023/09/08 09:50:30;;;;;;;3.63;3.33;;;24.20;64.50;;;;;;5090214;28;20479;-73
2023/09/08 09:53:19;;;;;;;3.80;3.50;;;24.20;64.50;;;;;;5093325;28;20528;-73
2023/09/08 09:56:06;;;;;;;3.80;3.50;;;24.20;64.40;;;;;;5087315;28;20423;-73
2023/09/08 09:58:55;;;;;;;3.53;3.23;;;24.20;64.50;;;;;;5091112;28;20764;-73
2023/09/08 10:01:43;;;;;;;3.50;3.27;;;24.20;64.60;;;;;;5094018;28;20444;-73
2023/09/08 10:04:33;;;;;;;3.27;2.97;;;24.10;64.60;;;;;;5085717;28;21053;-73
2023/09/08 10:07:23;;;;;;;3.33;3.03;;;24.10;64.50;;;;;;5088049;28;20451;-73
2023/09/08 10:10:11;;;;;;;3.27;3.07;;;24.20;64.70;;;;;;5091024;28;20458;-73
2023/09/08 10:13:03;;;;;;;3.70;3.40;;;24.10;64.50;;;;;;5089825;28;20513;-73
2023/09/08 10:15:51;;;;;;;3.80;3.50;;;24.10;64.60;;;;;;5116391;27;20440;-73
2023/09/08 10:18:40;;;;;;;3.80;3.40;;;24.20;64.70;;;;;;5100846;27;20482;-73
2023/09/08 10:21:30;;;;;;;3.60;3.30;;;24.20;64.70;;;;;;5085811;28;20850;-73
2023/09/08 10:24:24;;;;;;;3.17;2.90;;;24.20;64.70;;;;;;5089644;28;21022;-73
2023/09/08 10:27:13;;;;;;;3.57;3.37;;;24.20;64.70;;;;;;5087720;28;20561;-73
2023/09/08 10:30:01;;;;;;;3.27;2.97;;;24.20;64.70;;;;;;5121014;27;20534;-73
2023/09/08 10:32:50;;;;;;;3.37;3.10;;;24.20;64.90;;;;;;5091753;28;20444;-73
2023/09/08 10:35:38;;;;;;;3.50;3.20;;;24.20;64.80;;;;;;5086054;28;20468;-73
2023/09/08 10:38:26;;;;;;;3.40;3.10;;;24.20;64.80;;;;;;5091175;28;21173;-68
2023/09/08 10:41:31;;;;;;;3.60;3.30;;;24.20;64.90;;;;;;5085665;28;20493;-68
2023/09/08 10:44:18;;;;;;;3.37;3.07;;;24.20;64.80;;;;;;5101854;28;20868;-68
2023/09/08 10:47:05;;;;;;;3.60;3.30;;;24.20;64.80;;;;;;5086518;28;20529;-68
2023/09/08 10:49:54;;;;;;;3.20;3.00;;;24.20;64.80;;;;;;5101516;28;20575;-67
2023/09/08 10:52:46;;;;;;;3.83;3.53;;;24.20;64.90;;;;;;5090982;28;20821;-68
2023/09/08 10:55:37;;;;;;;3.47;3.27;;;24.20;64.90;;;;;;5091529;28;20796;-67
2023/09/08 10:58:33;;;;;;;3.20;3.00;;;24.20;64.90;;;;;;5085446;28;20472;-68
2023/09/08 11:01:26;;;;;;;3.50;2.93;;;24.20;64.90;;;;;;5092602;28;20961;-68
2023/09/08 11:04:18;;;;;;;2.93;2.73;;;24.20;64.90;;;;;;5079988;28;20483;-68
2023/09/08 11:07:06;;;;;;;3.40;3.10;;;24.20;64.90;;;;;;5088149;28;20463;-67
2023/09/08 11:09:53;;;;;;;3.10;2.90;;;24.20;64.90;;;;;;5089098;28;20462;-67
2023/09/08 11:12:40;;;;;;;3.43;3.23;;;24.20;65.00;;;;;;5089750;28;20529;-68
2023/09/08 11:15:28;;;;;;;3.73;3.43;;;24.20;65.00;;;;;;5087464;28;20455;-67
2023/09/08 11:18:15;;;;;;;3.70;3.40;;;24.20;65.00;;;;;;5090106;28;20574;-68
2023/09/08 11:21:08;;;;;;;3.47;3.17;;;24.20;65.10;;;;;;5112874;27;20952;-73
2023/09/08 11:23:55;;;;;;;2.90;2.70;;;24.20;65.00;;;;;;5088621;28;20607;-67
2023/09/08 11:26:45;;;;;;;3.17;2.87;;;24.20;65.10;;;;;;5088896;28;20830;-67
2023/09/08 11:29:32;;;;;;;3.30;3.07;;;24.20;65.20;;;;;;5089655;28;20475;-68
2023/09/08 11:32:21;;;;;;;3.30;3.10;;;24.30;65.20;;;;;;5092114;28;20943;-68
2023/09/08 11:35:10;;;;;;;4.20;2.77;;;24.20;65.10;;;;;;5088923;28;20475;-67
2023/09/08 11:38:04;;;;;;;3.80;3.50;;;24.30;65.20;;;;;;5091129;28;20443;-67
2023/09/08 11:40:51;;;;;;;2.90;2.70;;;24.30;65.20;;;;;;5120856;27;21023;-68
2023/09/08 11:43:38;;;;;;;3.13;2.93;;;24.30;65.30;;;;;;5101687;28;20615;-68
2023/09/08 11:46:26;;;;;;;3.07;2.77;;;24.30;65.30;;;;;;5089444;28;20431;-68
2023/09/08 11:49:15;;;;;;;3.33;3.03;;;24.30;65.20;;;;;;5097308;28;20491;-68
2023/09/08 11:52:03;;;;;;;3.00;2.80;;;24.30;65.30;;;;;;5090817;28;20493;-68
2023/09/08 11:54:51;;;;;;;3.57;3.27;;;24.30;65.30;;;;;;5090606;28;20965;-73
2023/09/08 11:57:57;;;;;;;3.27;2.97;;;24.30;65.40;;;;;;5088587;28;20490;-73
2023/09/08 12:00:47;;;;;;;3.53;3.23;;;24.30;65.30;;;;;;5089082;28;20439;-73
2023/09/08 12:03:34;;;;;;;3.70;3.40;;;24.30;65.30;;;;;;5089414;27;20478;-73
2023/09/08 12:06:27;;;;;;;3.40;3.10;;;24.30;65.30;;;;;;5116045;27;20450;-73
2023/09/08 12:09:16;;;;;;;3.33;3.03;;;24.30;65.20;;;;;;5104650;27;20612;-73
2023/09/08 12:12:04;;;;;;;3.30;3.00;;;24.30;65.30;;;;;;5088677;28;20509;-73
2023/09/08 12:14:51;;;;;;;3.20;2.90;;;24.30;65.30;;;;;;5088701;28;20464;-73
2023/09/08 12:17:48;;;;;;;2.87;2.67;;;24.30;65.30;;;;;;5089734;28;20435;-73
2023/09/08 12:20:36;;;;;;;4.00;3.10;;;24.30;65.30;;;;;;5086412;28;20495;-73
2023/09/08 12:23:24;;;;;;;3.70;3.40;;;24.30;66.60;;;;;;5115423;27;20612;-73
2023/09/08 12:26:11;;;;;;;3.57;3.27;;;24.30;65.40;;;;;;5082596;28;21076;-73
2023/09/08 12:28:58;;;;;;;2.87;2.67;;;24.30;65.50;;;;;;5089158;28;20493;-73
2023/09/08 12:31:46;;;;;;;2.80;2.60;;;24.30;65.40;;;;;;5094939;28;20993;-73
2023/09/08 12:34:33;;;;;;;3.27;3.07;;;24.40;65.60;;;;;;5107465;28;20480;-73
2023/09/08 12:37:24;;;;;;;2.80;2.60;;;24.40;66.80;;;;;;5087953;28;20455;-73
2023/09/08 12:40:15;;;;;;;3.00;2.70;;;24.40;65.70;;;;;;5093450;28;20463;-73
2023/09/08 12:43:02;;;;;;;6.33;4.57;;;24.40;65.60;;;;;;5112278;27;20541;-73
2023/09/08 12:45:56;;;;;;;5.73;5.13;;;24.40;66.10;;;;;;5087237;27;20451;-74
2023/09/08 12:48:43;;;;;;;6.20;4.93;;;24.60;67.00;;;;;;5090962;28;20487;-74
2023/09/08 12:51:30;;;;;;;5.93;5.30;;;24.70;65.90;;;;;;5089025;28;21002;-73
2023/09/08 12:54:17;;;;;;;7.07;5.70;;;24.90;65.50;;;;;;5084529;28;20568;-73
2023/09/08 12:57:05;;;;;;;5.50;5.00;;;24.90;65.30;;;;;;5099955;28;20669;-73
2023/09/08 12:59:53;;;;;;;5.33;4.93;;;24.90;65.20;;;;;;5084501;28;20959;-73
2023/09/08 13:02:41;;;;;;;7.43;4.43;;;24.80;65.30;;;;;;5087494;28;20455;-73
2023/09/08 13:05:28;;;;;;;6.50;5.30;;;24.80;65.50;;;;;;5097496;28;20726;-73
2023/09/08 13:08:16;;;;;;;5.00;4.60;;;24.80;65.70;;;;;;5086944;28;20475;-73
2023/09/08 13:11:03;;;;;;;5.97;5.00;;;24.70;65.80;;;;;;5089982;28;20500;-73
2023/09/08 13:13:51;;;;;;;5.83;5.23;;;24.70;65.80;;;;;;5086565;28;20463;-73
2023/09/08 13:16:38;;;;;;;4.70;4.30;;;24.70;66.00;;;;;;5092349;28;21077;-73
2023/09/08 13:19:25;;;;;;;5.47;4.97;;;24.70;66.00;;;;;;5084104;28;20481;-73
2023/09/08 13:22:13;;;;;;;5.33;4.83;;;24.70;66.10;;;;;;5088844;28;21014;-73
2023/09/08 13:25:00;;;;;;;6.60;4.93;;;24.70;66.10;;;;;;5079614;28;20475;-73
2023/09/08 13:27:48;;;;;;;5.73;5.30;;;24.70;66.10;;;;;;5087473;28;21082;-73
2023/09/08 13:30:37;;;;;;;5.13;4.53;;;24.60;66.00;;;;;;5099364;28;20511;-73
2023/09/08 13:33:24;;;;;;;5.30;4.30;;;24.70;66.30;;;;;;5085228;28;20479;-73
2023/09/08 13:36:11;;;;;;;4.87;4.40;;;24.70;66.10;;;;;;5110195;27;20541;-73
2023/09/08 13:38:58;;;;;;;5.53;4.10;;;24.70;66.10;;;;;;5101310;27;20463;-73
2023/09/08 13:41:49;;;;;;;4.53;4.17;;;24.70;66.20;;;;;;5083892;28;20621;-73
2023/09/08 13:44:37;;;;;;;4.63;4.23;;;24.70;66.10;;;;;;5085718;28;20991;-73
2023/09/08 13:47:25;;;;;;;5.43;4.43;;;24.70;66.00;;;;;;5082730;28;20462;-73
2023/09/08 13:50:13;;;;;;;4.97;4.57;;;24.70;66.00;;;;;;5089233;28;20621;-73
2023/09/08 13:53:03;;;;;;;5.50;4.27;;;24.70;65.90;;;;;;5085478;28;20443;-68
2023/09/08 13:55:51;;;;;;;4.60;4.20;;;24.70;66.00;;;;;;5090669;28;20439;-67
2023/09/08 13:58:38;;;;;;;5.10;4.70;;;24.70;67.30;;;;;;5096385;28;20467;-68
2023/09/08 14:01:29;;;;;;;5.10;4.50;;;24.70;66.00;;;;;;5095628;28;21373;-68
2023/09/08 14:04:22;;;;;;;4.23;3.93;;;24.70;66.00;;;;;;5095694;28;20540;-68
2023/09/08 14:07:13;;;;;;;4.90;4.20;;;24.70;65.90;;;;;;5089160;28;20456;-68
2023/09/08 14:10:09;;;;;;;4.80;4.40;;;24.70;65.90;;;;;;5115782;27;20480;-68
2023/09/08 14:12:59;;;;;;;5.33;4.93;;;24.70;65.80;;;;;;5095290;28;20432;-73
2023/09/08 14:15:46;;;;;;;4.40;4.10;;;24.80;66.00;;;;;;5086089;28;20577;-73
2023/09/08 14:18:34;;;;;;;4.90;4.50;;;24.80;66.00;;;;;;5086334;28;20573;-73
2023/09/08 14:21:28;;;;;;;5.10;4.70;;;24.80;65.90;;;;;;5116651;27;20482;-73
2023/09/08 14:24:23;;;;;;;4.93;4.43;;;24.80;65.90;;;;;;5101385;28;20525;-68
2023/09/08 14:27:10;;;;;;;4.80;4.40;;;24.80;65.90;;;;;;5085814;28;21024;-68
2023/09/08 14:29:57;;;;;;;4.80;4.40;;;24.80;65.90;;;;;;5084074;28;20574;-68
2023/09/08 14:32:44;;;;;;;5.27;4.10;;;24.80;65.90;;;;;;5083124;28;20449;-68
2023/09/08 14:35:31;;;;;;;4.23;3.90;;;24.90;66.40;;;;;;5095273;28;20446;-67
2023/09/08 14:38:20;;;;;;;4.40;4.03;;;24.90;66.20;;;;;;5086711;28;20524;-68